TimeICT,TemperatureF,Dew PointF,Humidity,Sea Level PressureIn,VisibilityMPH,Wind Direction,Wind SpeedMPH,Gust SpeedMPH,PrecipitationIn,Events,Conditions,WindDirDegrees,DateUTC
12:00 AM,80.6,73.4,79,29.80,6.2,SSE,5.8,-,N/A,,Mostly Cloudy,150,2012-10-25 17:00:00
12:30 AM,80.6,75.2,84,29.77,6.2,ESE,8.1,-,N/A,,Mostly Cloudy,120,2012-10-25 17:30:00
1:00 AM,80,74,76,29.79,6,Calm,Calm,,,,Scattered Clouds,,2012-10-25 18:00:00
1:00 AM,80.6,73.4,79,29.77,6.2,Calm,Calm,-,N/A,,Mostly Cloudy,0,2012-10-25 18:00:00
1:30 AM,80.6,73.4,79,29.77,6.2,Calm,Calm,-,N/A,,Mostly Cloudy,0,2012-10-25 18:30:00
2:00 AM,80.6,73.4,79,29.74,6.2,Calm,Calm,-,N/A,,Mostly Cloudy,0,2012-10-25 19:00:00
2:30 AM,80.6,73.4,79,29.74,6.2,Calm,Calm,-,N/A,,Mostly Cloudy,0,2012-10-25 19:30:00
3:00 AM,80.6,73.4,79,29.77,6.2,Calm,Calm,-,N/A,,Mostly Cloudy,0,2012-10-25 20:00:00
3:30 AM,80.6,73.4,79,29.77,6.2,Calm,Calm,-,N/A,,Mostly Cloudy,0,2012-10-25 20:30:00
4:00 AM,82.4,75.2,79,29.74,6.2,WNW,3.5,-,N/A,,Mostly Cloudy,300,2012-10-25 21:00:00
4:30 AM,82.4,75.2,79,29.74,6.2,Calm,Calm,-,N/A,,Mostly Cloudy,0,2012-10-25 21:30:00
5:00 AM,82.4,75.2,79,29.74,6.2,Calm,Calm,-,N/A,,Mostly Cloudy,0,2012-10-25 22:00:00
5:30 AM,82.4,75.2,79,29.77,6.2,Calm,Calm,-,N/A,,Mostly Cloudy,0,2012-10-25 22:30:00
6:00 AM,80.6,75.2,84,29.77,6.2,Calm,Calm,-,N/A,,Mostly Cloudy,0,2012-10-25 23:00:00
6:30 AM,80.6,75.2,84,29.77,6.2,Calm,Calm,-,N/A,,Mostly Cloudy,0,2012-10-25 23:30:00
7:00 AM,81,76,80,29.81,6,NNW,3.5,,,,Clear,330,2012-10-26 00:00:00
7:00 AM,80.6,75.2,84,29.80,6.2,NNW,3.5,-,N/A,,Scattered Clouds,330,2012-10-26 00:00:00
7:30 AM,82.4,75.2,79,29.80,6.2,NNW,4.6,-,N/A,,Scattered Clouds,330,2012-10-26 00:30:00
8:00 AM,82.4,77.0,84,29.80,6.2,NNW,3.5,-,N/A,,Scattered Clouds,330,2012-10-26 01:00:00
8:30 AM,84.2,75.2,74,29.83,6.2,Calm,Calm,-,N/A,,Scattered Clouds,0,2012-10-26 01:30:00
9:00 AM,86.0,73.4,66,29.83,6.2,NW,4.6,-,N/A,,Scattered Clouds,310,2012-10-26 02:00:00
9:30 AM,87.8,77.0,70,29.83,6.2,Calm,Calm,-,N/A,,Scattered Clouds,0,2012-10-26 02:30:00
10:00 AM,91.4,75.2,59,29.83,6.2,NNE,8.1,-,N/A,,Scattered Clouds,20,2012-10-26 03:00:00
10:30 AM,91.4,75.2,59,29.83,6.2,East,8.1,-,N/A,,Scattered Clouds,80,2012-10-26 03:30:00
11:00 AM,91.4,75.2,59,29.80,6.2,NNE,1.2,-,N/A,,Scattered Clouds,20,2012-10-26 04:00:00
11:30 AM,95.0,73.4,49,29.80,6.2,ENE,4.6,-,N/A,,Scattered Clouds,60,2012-10-26 04:30:00
12:00 PM,95.0,73.4,49,29.77,6.2,Calm,Calm,-,N/A,,Scattered Clouds,0,2012-10-26 05:00:00
12:30 PM,93.2,73.4,52,29.77,6.2,North,1.2,-,N/A,,Scattered Clouds,350,2012-10-26 05:30:00
1:00 PM,94,74,43,29.76,6,NNW,9.2,,,,Partly Cloudy,330,2012-10-26 06:00:00
1:00 PM,93.2,73.4,52,29.74,6.2,NNW,9.2,-,N/A,,Mostly Cloudy,330,2012-10-26 06:00:00
1:30 PM,93.2,73.4,52,29.74,6.2,North,8.1,-,N/A,,Mostly Cloudy,350,2012-10-26 06:30:00
2:00 PM,95.0,73.4,49,29.71,6.2,NNE,6.9,-,N/A,,Mostly Cloudy,20,2012-10-26 07:00:00
2:30 PM,95.0,73.4,49,29.71,6.2,North,9.2,-,N/A,,Mostly Cloudy,350,2012-10-26 07:30:00
3:00 PM,95.0,69.8,44,29.71,6.2,North,5.8,-,N/A,,Scattered Clouds,350,2012-10-26 08:00:00
3:30 PM,95.0,69.8,44,29.68,6.2,North,6.9,-,N/A,,Scattered Clouds,10,2012-10-26 08:30:00
4:00 PM,96.8,66.2,37,29.68,6.2,North,5.8,-,N/A,,Scattered Clouds,10,2012-10-26 09:00:00
4:30 PM,96.8,68.0,39,29.71,6.2,North,6.9,-,N/A,,Scattered Clouds,10,2012-10-26 09:30:00
5:00 PM,95.0,69.8,44,29.71,6.2,North,8.1,-,N/A,,Scattered Clouds,10,2012-10-26 10:00:00
5:30 PM,95.0,73.4,49,29.71,6.2,NNW,6.9,-,N/A,,Scattered Clouds,340,2012-10-26 10:30:00
6:00 PM,91.4,71.6,52,29.71,6.2,NNW,5.8,-,N/A,,Scattered Clouds,330,2012-10-26 11:00:00
6:30 PM,91.4,71.6,52,29.71,6.2,NW,5.8,-,N/A,,Scattered Clouds,320,2012-10-26 11:30:00
7:00 PM,91.4,75.2,59,29.74,6.2,Calm,Calm,-,N/A,,Scattered Clouds,0,2012-10-26 12:00:00
7:30 PM,91.4,75.2,59,29.74,6.2,West,4.6,-,N/A,,Scattered Clouds,270,2012-10-26 12:30:00
8:00 PM,89.6,73.4,59,29.74,6.2,WNW,1.2,-,N/A,,Scattered Clouds,300,2012-10-26 13:00:00
8:30 PM,89.6,75.2,62,29.74,6.2,NNW,3.5,-,N/A,,Scattered Clouds,330,2012-10-26 13:30:00
9:00 PM,89.6,75.2,62,29.77,6.2,North,5.8,-,N/A,,Scattered Clouds,350,2012-10-26 14:00:00
9:30 PM,87.8,73.4,62,29.77,6.2,NNE,5.8,-,N/A,,Scattered Clouds,20,2012-10-26 14:30:00
10:00 PM,87.8,73.4,62,29.77,6.2,NNE,5.8,-,N/A,,Scattered Clouds,20,2012-10-26 15:00:00
10:30 PM,87.8,73.4,62,29.77,6.2,NNE,6.9,-,N/A,,Scattered Clouds,30,2012-10-26 15:30:00
11:00 PM,86.0,73.4,66,29.77,6.2,NE,3.5,-,N/A,,Scattered Clouds,40,2012-10-26 16:00:00
11:30 PM,86.0,73.4,66,29.77,6.2,Calm,Calm,-,N/A,,Scattered Clouds,0,2012-10-26 16:30:00